Alvwood, Minnesota
Current Conditions -  °F | °C
As of 6:14 AM on Monday 20 Oct 2014 (Local Time) from KVWU Reporting Station
Overcast Overcast  
Wind Chill: 39°   Ceiling: 3000
Heat Index: 43°   Visibility: 10mi
Dew Point: 41°   Wind: 7mph
Humidity: 93%   Direction: 310°NW
Pressure: 29.97"   Gusts: NA
Location:  47.7306°N, 94.3762°W
Report Text: KVWU 201114Z AUTO 31006KT 10SM OVC030 06/05 A2997 RMK AO2
Loading
Personal Weather Stations






























Interactive Weather Map New forecast layout! Learn more

10-Day Weather Forecast

Advertisements
Track Severe Weather on mobile